sensor_id;sensor_type;location;lat;lon;timestamp;temperature;humidity
75357;HTU21D;63946;51.986;5.930;2023-05-29T05:38:42;13.00;59.48
75357;HTU21D;63946;51.986;5.930;2023-05-29T05:41:13;13.08;59.19
75357;HTU21D;63946;51.986;5.930;2023-05-29T05:43:42;13.25;58.70
75357;HTU21D;63946;51.986;5.930;2023-05-29T05:46:25;13.29;58.51
75357;HTU21D;63946;51.986;5.930;2023-05-29T05:48:54;13.29;58.23
75357;HTU21D;63946;51.986;5.930;2023-05-29T05:51:27;13.21;58.15
75357;HTU21D;63946;51.986;5.930;2023-05-29T05:53:57;13.11;58.45
75357;HTU21D;63946;51.986;5.930;2023-05-29T05:56:27;13.30;58.09
75357;HTU21D;63946;51.986;5.930;2023-05-29T05:58:56;13.49;57.49
75357;HTU21D;63946;51.986;5.930;2023-05-29T06:01:25;13.65;57.06
75357;HTU21D;63946;51.986;5.930;2023-05-29T06:03:54;13.74;56.73
75357;HTU21D;63946;51.986;5.930;2023-05-29T06:06:26;13.76;56.63
75357;HTU21D;63946;51.986;5.930;2023-05-29T06:09:01;13.83;56.43
75357;HTU21D;63946;51.986;5.930;2023-05-29T06:11:30;13.99;55.85
75357;HTU21D;63946;51.986;5.930;2023-05-29T06:13:59;14.15;55.47
75357;HTU21D;63946;51.986;5.930;2023-05-29T06:16:32;14.14;54.97
75357;HTU21D;63946;51.986;5.930;2023-05-29T06:19:02;14.06;54.86
75357;HTU21D;63946;51.986;5.930;2023-05-29T06:21:40;13.93;55.12
75357;HTU21D;63946;51.986;5.930;2023-05-29T06:24:10;14.01;54.87
75357;HTU21D;63946;51.986;5.930;2023-05-29T06:26:39;13.97;54.88
75357;HTU21D;63946;51.986;5.930;2023-05-29T06:29:10;14.09;54.59
75357;HTU21D;63946;51.986;5.930;2023-05-29T06:31:39;14.08;54.19
75357;HTU21D;63946;51.986;5.930;2023-05-29T06:34:08;14.03;54.20
75357;HTU21D;63946;51.986;5.930;2023-05-29T06:36:37;14.08;54.17
75357;HTU21D;63946;51.986;5.930;2023-05-29T06:39:07;14.09;53.91
75357;HTU21D;63946;51.986;5.930;2023-05-29T06:41:36;14.24;53.77
75357;HTU21D;63946;51.986;5.930;2023-05-29T06:44:06;14.35;53.12
75357;HTU21D;63946;51.986;5.930;2023-05-29T06:46:35;14.26;52.85
75357;HTU21D;63946;51.986;5.930;2023-05-29T06:49:03;14.29;52.88
75357;HTU21D;63946;51.986;5.930;2023-05-29T06:51:33;14.27;52.87
75357;HTU21D;63946;51.986;5.930;2023-05-29T06:54:21;14.37;52.88
75357;HTU21D;63946;51.986;5.930;2023-05-29T06:56:50;14.51;52.17
75357;HTU21D;63946;51.986;5.930;2023-05-29T06:59:20;14.56;52.20
75357;HTU21D;63946;51.986;5.930;2023-05-29T07:01:49;14.67;51.96
75357;HTU21D;63946;51.986;5.930;2023-05-29T07:04:17;14.78;51.85
75357;HTU21D;63946;51.986;5.930;2023-05-29T07:06:46;14.96;51.88
75357;HTU21D;63946;51.986;5.930;2023-05-29T07:09:15;15.22;50.90
75357;HTU21D;63946;51.986;5.930;2023-05-29T07:11:46;15.19;50.11
75357;HTU21D;63946;51.986;5.930;2023-05-29T07:14:15;15.13;49.58
75357;HTU21D;63946;51.986;5.930;2023-05-29T07:16:44;14.85;50.02
75357;HTU21D;63946;51.986;5.930;2023-05-29T07:19:13;14.91;50.71
75357;HTU21D;63946;51.986;5.930;2023-05-29T07:21:43;15.08;50.35
75357;HTU21D;63946;51.986;5.930;2023-05-29T07:24:12;15.13;50.16
75357;HTU21D;63946;51.986;5.930;2023-05-29T07:26:41;15.29;50.27
75357;HTU21D;63946;51.986;5.930;2023-05-29T07:29:11;15.45;49.89
75357;HTU21D;63946;51.986;5.930;2023-05-29T07:31:40;15.51;49.81
75357;HTU21D;63946;51.986;5.930;2023-05-29T07:34:11;15.58;49.40
75357;HTU21D;63946;51.986;5.930;2023-05-29T07:39:26;16.02;48.70
75357;HTU21D;63946;51.986;5.930;2023-05-29T07:41:57;16.20;48.04
75357;HTU21D;63946;51.986;5.930;2023-05-29T07:44:27;16.15;48.34
75357;HTU21D;63946;51.986;5.930;2023-05-29T07:46:59;16.19;48.74
75357;HTU21D;63946;51.986;5.930;2023-05-29T07:49:38;16.33;48.56
75357;HTU21D;63946;51.986;5.930;2023-05-29T07:52:08;16.36;48.31
75357;HTU21D;63946;51.986;5.930;2023-05-29T07:54:37;16.45;48.12
75357;HTU21D;63946;51.986;5.930;2023-05-29T07:57:08;16.59;47.85
75357;HTU21D;63946;51.986;5.930;2023-05-29T07:59:43;16.63;47.06
75357;HTU21D;63946;51.986;5.930;2023-05-29T08:02:15;16.66;47.32
75357;HTU21D;63946;51.986;5.930;2023-05-29T08:05:20;16.81;47.44
75357;HTU21D;63946;51.986;5.930;2023-05-29T08:07:52;16.86;47.29
75357;HTU21D;63946;51.986;5.930;2023-05-29T08:10:25;16.95;47.07
75357;HTU21D;63946;51.986;5.930;2023-05-29T08:12:53;17.03;46.93
75357;HTU21D;63946;51.986;5.930;2023-05-29T08:15:22;17.09;46.83
75357;HTU21D;63946;51.986;5.930;2023-05-29T08:17:52;17.15;46.30
75357;HTU21D;63946;51.986;5.930;2023-05-29T08:20:21;17.06;46.37
75357;HTU21D;63946;51.986;5.930;2023-05-29T08:22:50;17.18;45.77
75357;HTU21D;63946;51.986;5.930;2023-05-29T08:25:19;17.13;46.07
75357;HTU21D;63946;51.986;5.930;2023-05-29T08:27:53;17.09;45.67
75357;HTU21D;63946;51.986;5.930;2023-05-29T08:30:22;17.04;45.65
75357;HTU21D;63946;51.986;5.930;2023-05-29T08:32:52;17.02;45.51
75357;HTU21D;63946;51.986;5.930;2023-05-29T08:35:23;16.87;45.83
75357;HTU21D;63946;51.986;5.930;2023-05-29T08:37:53;16.79;46.29
75357;HTU21D;63946;51.986;5.930;2023-05-29T08:40:26;16.76;46.40
75357;HTU21D;63946;51.986;5.930;2023-05-29T08:42:58;16.76;46.33
75357;HTU21D;63946;51.986;5.930;2023-05-29T08:45:28;16.74;46.19
75357;HTU21D;63946;51.986;5.930;2023-05-29T08:48:03;16.81;45.87
75357;HTU21D;63946;51.986;5.930;2023-05-29T08:50:32;16.85;45.62
75357;HTU21D;63946;51.986;5.930;2023-05-29T08:53:06;17.01;45.42
75357;HTU21D;63946;51.986;5.930;2023-05-29T08:55:37;17.19;45.24
75357;HTU21D;63946;51.986;5.930;2023-05-29T08:58:06;17.25;44.87
75357;HTU21D;63946;51.986;5.930;2023-05-29T09:00:38;17.26;44.67
75357;HTU21D;63946;51.986;5.930;2023-05-29T09:03:08;17.21;44.72
75357;HTU21D;63946;51.986;5.930;2023-05-29T09:05:39;17.31;44.92
75357;HTU21D;63946;51.986;5.930;2023-05-29T09:08:12;17.25;44.73
75357;HTU21D;63946;51.986;5.930;2023-05-29T09:10:42;17.21;44.67
75357;HTU21D;63946;51.986;5.930;2023-05-29T09:13:11;17.39;44.35
75357;HTU21D;63946;51.986;5.930;2023-05-29T09:15:41;17.46;44.42
75357;HTU21D;63946;51.986;5.930;2023-05-29T09:18:11;17.43;44.28
75357;HTU21D;63946;51.986;5.930;2023-05-29T09:20:40;17.44;44.32
75357;HTU21D;63946;51.986;5.930;2023-05-29T09:23:13;17.68;44.28
75357;HTU21D;63946;51.986;5.930;2023-05-29T09:25:51;17.90;43.85
75357;HTU21D;63946;51.986;5.930;2023-05-29T09:28:21;17.95;43.51
75357;HTU21D;63946;51.986;5.930;2023-05-29T09:30:57;17.88;43.68
75357;HTU21D;63946;51.986;5.930;2023-05-29T09:33:26;17.89;43.76
75357;HTU21D;63946;51.986;5.930;2023-05-29T09:35:55;17.94;43.97
75357;HTU21D;63946;51.986;5.930;2023-05-29T09:38:24;18.18;43.67
75357;HTU21D;63946;51.986;5.930;2023-05-29T09:40:52;18.29;43.20
75357;HTU21D;63946;51.986;5.930;2023-05-29T09:43:26;18.41;43.12
75357;HTU21D;63946;51.986;5.930;2023-05-29T09:46:00;18.59;42.81
75357;HTU21D;63946;51.986;5.930;2023-05-29T09:48:32;18.61;42.49
75357;HTU21D;63946;51.986;5.930;2023-05-29T09:51:02;18.52;42.52
75357;HTU21D;63946;51.986;5.930;2023-05-29T09:53:34;18.17;42.84
75357;HTU21D;63946;51.986;5.930;2023-05-29T09:56:09;18.05;43.06
75357;HTU21D;63946;51.986;5.930;2023-05-29T09:58:37;17.98;43.01
75357;HTU21D;63946;51.986;5.930;2023-05-29T10:01:12;17.87;43.53
75357;HTU21D;63946;51.986;5.930;2023-05-29T10:03:45;17.92;43.94
75357;HTU21D;63946;51.986;5.930;2023-05-29T10:06:18;18.22;43.91
75357;HTU21D;63946;51.986;5.930;2023-05-29T10:08:47;18.40;43.33
75357;HTU21D;63946;51.986;5.930;2023-05-29T10:11:21;18.49;42.77
75357;HTU21D;63946;51.986;5.930;2023-05-29T10:13:52;18.29;43.17
75357;HTU21D;63946;51.986;5.930;2023-05-29T10:16:23;18.27;43.36
75357;HTU21D;63946;51.986;5.930;2023-05-29T10:18:57;18.25;43.14
75357;HTU21D;63946;51.986;5.930;2023-05-29T10:21:27;18.32;42.61
75357;HTU21D;63946;51.986;5.930;2023-05-29T10:23:58;18.29;43.01
75357;HTU21D;63946;51.986;5.930;2023-05-29T10:26:28;18.41;42.12
75357;HTU21D;63946;51.986;5.930;2023-05-29T10:29:09;18.38;41.95
75357;HTU21D;63946;51.986;5.930;2023-05-29T10:35:00;18.65;41.33
75357;HTU21D;63946;51.986;5.930;2023-05-29T10:37:43;18.58;41.50
75357;HTU21D;63946;51.986;5.930;2023-05-29T10:40:16;18.79;40.92
75357;HTU21D;63946;51.986;5.930;2023-05-29T10:42:52;18.59;40.38
75357;HTU21D;63946;51.986;5.930;2023-05-29T10:50:44;18.64;39.80
75357;HTU21D;63946;51.986;5.930;2023-05-29T10:53:16;18.49;39.52
75357;HTU21D;63946;51.986;5.930;2023-05-29T10:55:45;18.51;39.45
75357;HTU21D;63946;51.986;5.930;2023-05-29T10:58:18;18.42;39.20
75357;HTU21D;63946;51.986;5.930;2023-05-29T11:00:50;18.43;39.39
75357;HTU21D;63946;51.986;5.930;2023-05-29T11:03:22;18.62;39.51
75357;HTU21D;63946;51.986;5.930;2023-05-29T11:06:04;18.71;38.98
75357;HTU21D;63946;51.986;5.930;2023-05-29T11:08:53;18.59;39.14
75357;HTU21D;63946;51.986;5.930;2023-05-29T11:14:01;18.70;39.24
75357;HTU21D;63946;51.986;5.930;2023-05-29T11:19:04;18.69;39.64
75357;HTU21D;63946;51.986;5.930;2023-05-29T11:21:52;18.85;38.40
75357;HTU21D;63946;51.986;5.930;2023-05-29T11:24:27;18.80;38.02
75357;HTU21D;63946;51.986;5.930;2023-05-29T11:26:57;18.76;38.34
75357;HTU21D;63946;51.986;5.930;2023-05-29T11:29:32;18.99;38.24
75357;HTU21D;63946;51.986;5.930;2023-05-29T11:32:03;19.15;38.15
75357;HTU21D;63946;51.986;5.930;2023-05-29T11:34:33;19.31;37.83
75357;HTU21D;63946;51.986;5.930;2023-05-29T11:37:03;19.53;37.03
75357;HTU21D;63946;51.986;5.930;2023-05-29T11:39:36;19.45;36.92
75357;HTU21D;63946;51.986;5.930;2023-05-29T11:42:05;19.43;37.35
75357;HTU21D;63946;51.986;5.930;2023-05-29T11:44:35;19.52;36.47
75357;HTU21D;63946;51.986;5.930;2023-05-29T11:47:07;19.42;36.64
75357;HTU21D;63946;51.986;5.930;2023-05-29T11:49:36;19.55;37.11
75357;HTU21D;63946;51.986;5.930;2023-05-29T11:52:13;19.62;37.36
75357;HTU21D;63946;51.986;5.930;2023-05-29T11:54:43;19.73;37.62
75357;HTU21D;63946;51.986;5.930;2023-05-29T11:57:22;19.92;36.95
75357;HTU21D;63946;51.986;5.930;2023-05-29T11:59:51;19.74;36.30
75357;HTU21D;63946;51.986;5.930;2023-05-29T12:02:24;19.57;36.94
75357;HTU21D;63946;51.986;5.930;2023-05-29T12:05:02;19.60;37.12
75357;HTU21D;63946;51.986;5.930;2023-05-29T12:07:32;19.62;36.79
75357;HTU21D;63946;51.986;5.930;2023-05-29T12:10:11;19.61;36.08
75357;HTU21D;63946;51.986;5.930;2023-05-29T12:12:40;19.56;36.43
75357;HTU21D;63946;51.986;5.930;2023-05-29T12:15:09;19.79;36.58
75357;HTU21D;63946;51.986;5.930;2023-05-29T12:17:40;19.84;36.18
75357;HTU21D;63946;51.986;5.930;2023-05-29T12:20:13;20.03;36.30
75357;HTU21D;63946;51.986;5.930;2023-05-29T12:22:44;20.12;35.63
75357;HTU21D;63946;51.986;5.930;2023-05-29T12:25:20;20.04;35.54
75357;HTU21D;63946;51.986;5.930;2023-05-29T12:27:49;20.00;35.53
75357;HTU21D;63946;51.986;5.930;2023-05-29T12:32:52;20.06;35.07
75357;HTU21D;63946;51.986;5.930;2023-05-29T12:35:26;20.16;35.48
75357;HTU21D;63946;51.986;5.930;2023-05-29T12:37:57;20.26;34.92
75357;HTU21D;63946;51.986;5.930;2023-05-29T12:40:36;20.14;34.88
75357;HTU21D;63946;51.986;5.930;2023-05-29T12:43:06;20.14;35.00
75357;HTU21D;63946;51.986;5.930;2023-05-29T12:45:36;20.21;34.28
75357;HTU21D;63946;51.986;5.930;2023-05-29T12:48:06;19.97;34.12
75357;HTU21D;63946;51.986;5.930;2023-05-29T12:50:37;19.86;34.83
75357;HTU21D;63946;51.986;5.930;2023-05-29T12:53:11;19.98;34.91
75357;HTU21D;63946;51.986;5.930;2023-05-29T12:55:42;20.14;35.01
75357;HTU21D;63946;51.986;5.930;2023-05-29T12:58:13;20.16;34.68
75357;HTU21D;63946;51.986;5.930;2023-05-29T13:00:43;20.00;34.74
75357;HTU21D;63946;51.986;5.930;2023-05-29T13:03:14;19.95;34.32
75357;HTU21D;63946;51.986;5.930;2023-05-29T13:05:43;19.90;34.35
75357;HTU21D;63946;51.986;5.930;2023-05-29T13:08:12;19.92;33.65
75357;HTU21D;63946;51.986;5.930;2023-05-29T13:10:41;19.92;33.50
75357;HTU21D;63946;51.986;5.930;2023-05-29T13:13:09;20.04;33.03
75357;HTU21D;63946;51.986;5.930;2023-05-29T13:15:38;19.99;33.58
75357;HTU21D;63946;51.986;5.930;2023-05-29T13:18:07;20.04;33.49
75357;HTU21D;63946;51.986;5.930;2023-05-29T13:20:36;20.09;33.35
75357;HTU21D;63946;51.986;5.930;2023-05-29T13:23:04;20.14;33.51
75357;HTU21D;63946;51.986;5.930;2023-05-29T13:25:34;20.32;33.16
75357;HTU21D;63946;51.986;5.930;2023-05-29T13:28:04;20.37;33.27
75357;HTU21D;63946;51.986;5.930;2023-05-29T13:30:35;20.46;33.29
75357;HTU21D;63946;51.986;5.930;2023-05-29T13:33:04;20.55;33.06
75357;HTU21D;63946;51.986;5.930;2023-05-29T13:35:33;20.61;33.25
75357;HTU21D;63946;51.986;5.930;2023-05-29T13:38:04;20.72;32.79
75357;HTU21D;63946;51.986;5.930;2023-05-29T13:40:33;20.53;31.88
75357;HTU21D;63946;51.986;5.930;2023-05-29T13:43:02;20.33;31.96
75357;HTU21D;63946;51.986;5.930;2023-05-29T13:45:31;20.21;32.25
75357;HTU21D;63946;51.986;5.930;2023-05-29T13:48:00;20.15;32.68
75357;HTU21D;63946;51.986;5.930;2023-05-29T13:50:28;20.20;32.47
75357;HTU21D;63946;51.986;5.930;2023-05-29T13:53:00;20.25;32.12
75357;HTU21D;63946;51.986;5.930;2023-05-29T13:55:29;20.31;31.10
75357;HTU21D;63946;51.986;5.930;2023-05-29T13:57:58;20.36;30.75
75357;HTU21D;63946;51.986;5.930;2023-05-29T14:00:27;20.28;31.28
75357;HTU21D;63946;51.986;5.930;2023-05-29T14:02:56;20.26;31.75
75357;HTU21D;63946;51.986;5.930;2023-05-29T14:05:25;20.32;31.86
75357;HTU21D;63946;51.986;5.930;2023-05-29T14:07:54;20.32;30.68
75357;HTU21D;63946;51.986;5.930;2023-05-29T14:10:23;20.15;31.12
75357;HTU21D;63946;51.986;5.930;2023-05-29T14:12:51;20.30;30.84
75357;HTU21D;63946;51.986;5.930;2023-05-29T14:15:21;20.41;30.19
75357;HTU21D;63946;51.986;5.930;2023-05-29T14:17:49;20.51;30.13
75357;HTU21D;63946;51.986;5.930;2023-05-29T14:20:19;20.62;30.45
75357;HTU21D;63946;51.986;5.930;2023-05-29T14:22:47;20.70;29.95
75357;HTU21D;63946;51.986;5.930;2023-05-29T14:25:16;20.56;30.23
75357;HTU21D;63946;51.986;5.930;2023-05-29T14:27:45;20.58;30.16
75357;HTU21D;63946;51.986;5.930;2023-05-29T14:30:21;20.51;30.58
75357;HTU21D;63946;51.986;5.930;2023-05-29T14:32:50;20.59;30.76
75357;HTU21D;63946;51.986;5.930;2023-05-29T14:35:22;20.59;30.65
75357;HTU21D;63946;51.986;5.930;2023-05-29T14:37:51;20.58;30.19
75357;HTU21D;63946;51.986;5.930;2023-05-29T14:40:22;20.43;30.72
75357;HTU21D;63946;51.986;5.930;2023-05-29T14:42:54;20.37;31.16
75357;HTU21D;63946;51.986;5.930;2023-05-29T14:45:22;20.57;31.16
75357;HTU21D;63946;51.986;5.930;2023-05-29T14:47:51;20.58;31.25
75357;HTU21D;63946;51.986;5.930;2023-05-29T14:50:20;20.50;31.07
75357;HTU21D;63946;51.986;5.930;2023-05-29T14:52:51;20.59;30.82
75357;HTU21D;63946;51.986;5.930;2023-05-29T14:55:20;20.57;31.11
75357;HTU21D;63946;51.986;5.930;2023-05-29T14:57:55;20.53;31.51
75357;HTU21D;63946;51.986;5.930;2023-05-29T15:00:31;20.44;31.20
75357;HTU21D;63946;51.986;5.930;2023-05-29T15:03:00;20.31;30.99
75357;HTU21D;63946;51.986;5.930;2023-05-29T15:05:31;20.18;31.32
75357;HTU21D;63946;51.986;5.930;2023-05-29T15:08:00;20.14;31.67
75357;HTU21D;63946;51.986;5.930;2023-05-29T15:10:29;20.20;31.38
75357;HTU21D;63946;51.986;5.930;2023-05-29T15:12:58;20.14;31.21
75357;HTU21D;63946;51.986;5.930;2023-05-29T15:15:29;20.16;31.46
75357;HTU21D;63946;51.986;5.930;2023-05-29T15:18:01;20.25;30.61
75357;HTU21D;63946;51.986;5.930;2023-05-29T15:20:34;20.09;31.29
75357;HTU21D;63946;51.986;5.930;2023-05-29T15:23:02;20.15;30.99
75357;HTU21D;63946;51.986;5.930;2023-05-29T15:25:31;20.13;30.77
75357;HTU21D;63946;51.986;5.930;2023-05-29T15:28:00;20.09;30.89
75357;HTU21D;63946;51.986;5.930;2023-05-29T15:30:29;20.16;30.96
75357;HTU21D;63946;51.986;5.930;2023-05-29T15:32:57;20.30;30.87
75357;HTU21D;63946;51.986;5.930;2023-05-29T15:35:26;20.42;30.46
75357;HTU21D;63946;51.986;5.930;2023-05-29T15:37:55;20.34;30.03
75357;HTU21D;63946;51.986;5.930;2023-05-29T15:40:24;20.17;29.78
75357;HTU21D;63946;51.986;5.930;2023-05-29T15:42:53;20.13;30.18
75357;HTU21D;63946;51.986;5.930;2023-05-29T15:45:21;20.16;30.41
75357;HTU21D;63946;51.986;5.930;2023-05-29T15:47:59;20.10;30.43
75357;HTU21D;63946;51.986;5.930;2023-05-29T15:50:28;20.10;30.87
75357;HTU21D;63946;51.986;5.930;2023-05-29T15:52:57;20.05;30.85
75357;HTU21D;63946;51.986;5.930;2023-05-29T15:55:26;19.97;30.91
75357;HTU21D;63946;51.986;5.930;2023-05-29T15:57:55;20.04;31.37
75357;HTU21D;63946;51.986;5.930;2023-05-29T16:00:23;20.14;31.38
75357;HTU21D;63946;51.986;5.930;2023-05-29T16:02:52;20.01;31.23
75357;HTU21D;63946;51.986;5.930;2023-05-29T16:05:27;19.97;30.77
75357;HTU21D;63946;51.986;5.930;2023-05-29T16:07:56;19.87;30.39
75357;HTU21D;63946;51.986;5.930;2023-05-29T16:10:25;19.82;30.89
75357;HTU21D;63946;51.986;5.930;2023-05-29T16:12:57;19.73;30.86
75357;HTU21D;63946;51.986;5.930;2023-05-29T16:15:25;19.71;31.01
75357;HTU21D;63946;51.986;5.930;2023-05-29T16:17:55;19.67;31.30
75357;HTU21D;63946;51.986;5.930;2023-05-29T16:20:24;19.70;30.97
75357;HTU21D;63946;51.986;5.930;2023-05-29T16:22:53;19.69;30.88
75357;HTU21D;63946;51.986;5.930;2023-05-29T16:25:22;19.70;31.09
75357;HTU21D;63946;51.986;5.930;2023-05-29T16:27:51;19.73;30.60
75357;HTU21D;63946;51.986;5.930;2023-05-29T16:30:19;19.63;30.17
75357;HTU21D;63946;51.986;5.930;2023-05-29T16:32:49;19.54;29.99
75357;HTU21D;63946;51.986;5.930;2023-05-29T16:35:19;19.42;30.23
75357;HTU21D;63946;51.986;5.930;2023-05-29T16:37:49;19.43;30.26
75357;HTU21D;63946;51.986;5.930;2023-05-29T16:40:21;19.38;30.13
75357;HTU21D;63946;51.986;5.930;2023-05-29T16:42:50;19.30;30.52
75357;HTU21D;63946;51.986;5.930;2023-05-29T16:45:19;19.29;30.90
75357;HTU21D;63946;51.986;5.930;2023-05-29T16:47:51;19.17;31.30
75357;HTU21D;63946;51.986;5.930;2023-05-29T16:50:20;19.17;31.20
75357;HTU21D;63946;51.986;5.930;2023-05-29T16:52:49;19.20;31.72
75357;HTU21D;63946;51.986;5.930;2023-05-29T16:55:20;19.29;31.62
75357;HTU21D;63946;51.986;5.930;2023-05-29T16:57:50;19.33;31.57
75357;HTU21D;63946;51.986;5.930;2023-05-29T17:00:19;19.26;31.71
75357;HTU21D;63946;51.986;5.930;2023-05-29T17:02:49;19.18;30.81
75357;HTU21D;63946;51.986;5.930;2023-05-29T17:05:23;19.12;30.88
75357;HTU21D;63946;51.986;5.930;2023-05-29T17:07:52;19.13;30.60
75357;HTU21D;63946;51.986;5.930;2023-05-29T17:10:31;19.00;30.86
75357;HTU21D;63946;51.986;5.930;2023-05-29T17:13:01;18.91;30.95
75357;HTU21D;63946;51.986;5.930;2023-05-29T17:15:31;18.92;30.81
75357;HTU21D;63946;51.986;5.930;2023-05-29T17:18:00;18.98;31.06
75357;HTU21D;63946;51.986;5.930;2023-05-29T17:20:29;19.03;31.32
75357;HTU21D;63946;51.986;5.930;2023-05-29T17:22:58;19.08;31.20
75357;HTU21D;63946;51.986;5.930;2023-05-29T17:25:27;18.98;30.84
75357;HTU21D;63946;51.986;5.930;2023-05-29T17:27:56;18.93;30.88
75357;HTU21D;63946;51.986;5.930;2023-05-29T17:30:25;18.91;30.73
75357;HTU21D;63946;51.986;5.930;2023-05-29T17:32:54;18.79;30.64
75357;HTU21D;63946;51.986;5.930;2023-05-29T17:35:22;18.80;30.98
75357;HTU21D;63946;51.986;5.930;2023-05-29T17:37:52;18.80;31.05
75357;HTU21D;63946;51.986;5.930;2023-05-29T17:40:27;18.82;31.35
75357;HTU21D;63946;51.986;5.930;2023-05-29T17:42:57;18.78;31.42
75357;HTU21D;63946;51.986;5.930;2023-05-29T17:45:26;18.74;31.08
75357;HTU21D;63946;51.986;5.930;2023-05-29T17:47:55;18.56;31.19
75357;HTU21D;63946;51.986;5.930;2023-05-29T17:50:24;18.49;31.51
75357;HTU21D;63946;51.986;5.930;2023-05-29T17:52:56;18.41;31.52
75357;HTU21D;63946;51.986;5.930;2023-05-29T17:55:24;18.35;31.56
75357;HTU21D;63946;51.986;5.930;2023-05-29T17:57:53;18.29;31.64
75357;HTU21D;63946;51.986;5.930;2023-05-29T18:00:22;18.27;31.57
75357;HTU21D;63946;51.986;5.930;2023-05-29T18:02:51;18.23;31.92
75357;HTU21D;63946;51.986;5.930;2023-05-29T18:05:23;18.27;32.20
75357;HTU21D;63946;51.986;5.930;2023-05-29T18:07:51;18.25;32.20
75357;HTU21D;63946;51.986;5.930;2023-05-29T18:10:20;18.22;32.57
75357;HTU21D;63946;51.986;5.930;2023-05-29T18:12:49;18.18;33.11
75357;HTU21D;63946;51.986;5.930;2023-05-29T18:15:19;18.09;33.34
75357;HTU21D;63946;51.986;5.930;2023-05-29T18:17:47;18.10;33.76
75357;HTU21D;63946;51.986;5.930;2023-05-29T18:20:17;18.04;33.79
75357;HTU21D;63946;51.986;5.930;2023-05-29T18:22:46;17.97;33.98
75357;HTU21D;63946;51.986;5.930;2023-05-29T18:25:14;17.91;33.96
75357;HTU21D;63946;51.986;5.930;2023-05-29T18:27:44;17.85;33.96
75357;HTU21D;63946;51.986;5.930;2023-05-29T18:30:13;17.75;33.94
75357;HTU21D;63946;51.986;5.930;2023-05-29T18:32:42;17.67;34.34
75357;HTU21D;63946;51.986;5.930;2023-05-29T18:35:11;17.68;34.60
75357;HTU21D;63946;51.986;5.930;2023-05-29T18:37:40;17.64;35.16
75357;HTU21D;63946;51.986;5.930;2023-05-29T18:40:09;17.59;35.80
75357;HTU21D;63946;51.986;5.930;2023-05-29T18:42:38;17.47;36.21
75357;HTU21D;63946;51.986;5.930;2023-05-29T18:45:07;17.34;36.27
75357;HTU21D;63946;51.986;5.930;2023-05-29T18:47:36;17.25;36.45
75357;HTU21D;63946;51.986;5.930;2023-05-29T18:50:05;17.18;36.66
75357;HTU21D;63946;51.986;5.930;2023-05-29T18:52:34;17.09;36.87
75357;HTU21D;63946;51.986;5.930;2023-05-29T18:55:03;17.02;37.15
75357;HTU21D;63946;51.986;5.930;2023-05-29T18:57:32;16.98;37.21
75357;HTU21D;63946;51.986;5.930;2023-05-29T19:00:01;16.93;37.18
75357;HTU21D;63946;51.986;5.930;2023-05-29T19:02:31;16.81;37.31
75357;HTU21D;63946;51.986;5.930;2023-05-29T19:04:59;16.74;37.44
75357;HTU21D;63946;51.986;5.930;2023-05-29T19:07:28;16.71;37.60
75357;HTU21D;63946;51.986;5.930;2023-05-29T19:09:57;16.65;37.68
75357;HTU21D;63946;51.986;5.930;2023-05-29T19:12:26;16.64;37.65
75357;HTU21D;63946;51.986;5.930;2023-05-29T19:14:55;16.58;37.70
75357;HTU21D;63946;51.986;5.930;2023-05-29T19:17:23;16.47;37.97
75357;HTU21D;63946;51.986;5.930;2023-05-29T19:19:55;16.36;38.28
75357;HTU21D;63946;51.986;5.930;2023-05-29T19:22:24;16.31;38.53
75357;HTU21D;63946;51.986;5.930;2023-05-29T19:24:52;16.29;38.69
75357;HTU21D;63946;51.986;5.930;2023-05-29T19:27:21;16.19;39.10
75357;HTU21D;63946;51.986;5.930;2023-05-29T19:29:50;16.07;39.35
75357;HTU21D;63946;51.986;5.930;2023-05-29T19:32:22;16.00;39.75
75357;HTU21D;63946;51.986;5.930;2023-05-29T19:34:53;15.90;40.04
75357;HTU21D;63946;51.986;5.930;2023-05-29T19:37:21;15.86;40.17
75357;HTU21D;63946;51.986;5.930;2023-05-29T19:39:50;15.73;40.57
75357;HTU21D;63946;51.986;5.930;2023-05-29T19:42:23;15.66;40.83
75357;HTU21D;63946;51.986;5.930;2023-05-29T19:44:53;15.59;41.09
75357;HTU21D;63946;51.986;5.930;2023-05-29T19:47:24;15.54;41.37
75357;HTU21D;63946;51.986;5.930;2023-05-29T19:49:52;15.47;41.61
75357;HTU21D;63946;51.986;5.930;2023-05-29T19:52:22;15.42;41.95
75357;HTU21D;63946;51.986;5.930;2023-05-29T19:54:51;15.39;42.02
75357;HTU21D;63946;51.986;5.930;2023-05-29T19:57:19;15.30;42.45
